Time;durP1;ratioP1;P1;durP2;ratioP2;P2;SDS_P1;SDS_P2;PMS_P1;PMS_P2;Temp;Humidity;BMP_temperature;BMP_pressure;BME280_temperature;BME280_humidity;BME280_pressure;Samples;Min_cycle;Max_cycle;Signal;HPM_P1;HPM_P2
2023/01/30 00:00:15;;;;;;;;;37.00;32.67;;;;;6.54;64.75;102093.50;5057836;28;47251;-72
2023/01/30 00:02:40;;;;;;;;;31.67;28.67;;;;;6.61;64.60;102113.38;5058026;28;45738;-72
2023/01/30 00:05:06;;;;;;;;;35.00;32.67;;;;;6.98;64.54;102180.03;5056909;28;56283;-71
2023/01/30 00:07:31;;;;;;;;;35.67;30.00;;;;;7.46;64.48;102258.44;5039243;28;45445;-69
2023/01/30 00:09:57;;;;;;;;;29.33;28.33;;;;;7.22;64.98;102220.16;5057535;28;45344;-70
2023/01/30 00:12:23;;;;;;;;;32.67;31.00;;;;;7.59;64.95;102272.66;5057631;28;45395;-72
2023/01/30 00:14:48;;;;;;;;;31.67;29.33;;;;;7.16;64.39;102194.00;5058247;28;46019;-72
2023/01/30 00:17:14;;;;;;;;;35.00;32.33;;;;;7.69;64.58;102272.16;5039311;28;45408;-72
2023/01/30 00:19:39;;;;;;;;;39.00;31.33;;;;;7.71;64.04;102249.09;5039178;28;45393;-70
2023/01/30 00:22:04;;;;;;;;;38.67;30.00;;;;;7.01;64.68;102135.78;5057354;28;45331;-71
2023/01/30 00:24:30;;;;;;;;;35.67;31.67;;;;;7.34;64.12;102187.69;5038756;28;48664;-71
2023/01/30 00:26:55;;;;;;;;;36.67;32.67;;;;;7.38;64.83;102188.34;5057195;28;45499;-71
2023/01/30 00:29:20;;;;;;;;;36.33;32.33;;;;;7.63;64.50;102234.50;5060688;28;45415;-71
2023/01/30 00:31:46;;;;;;;;;39.33;32.33;;;;;7.32;64.56;102176.34;5042925;28;45572;-72
2023/01/30 00:34:11;;;;;;;;;34.33;31.67;;;;;7.63;64.41;102228.38;5060861;28;45281;-71
2023/01/30 00:36:36;;;;;;;;;31.00;27.33;;;;;7.02;64.25;102115.50;5060591;28;45232;-72
2023/01/30 00:39:02;;;;;;;;;37.00;33.67;;;;;7.41;64.69;102188.19;5042649;28;45320;-72
2023/01/30 00:47:04;;;;;;;;;33.33;29.33;;;;;7.28;65.06;102173.03;5060673;28;45250;-72
2023/01/30 00:47:05;;;;;;;;;38.00;32.00;;;;;7.54;64.59;102203.25;5060367;28;45210;-72
2023/01/30 00:49:32;;;;;;;;;32.67;29.00;;;;;7.43;65.14;102200.41;5060857;28;45310;-70
2023/01/30 00:51:57;;;;;;;;;38.67;34.67;;;;;7.38;64.43;102197.16;5061539;28;45526;-72
2023/01/30 00:54:22;;;;;;;;;36.33;33.67;;;;;7.38;65.05;102217.47;5060722;28;46126;-70
2023/01/30 00:56:48;;;;;;;;;35.00;32.67;;;;;7.35;65.09;102199.13;5060335;28;45296;-71
2023/01/30 00:59:13;;;;;;;;;41.67;35.33;;;;;7.39;65.39;102188.25;5060380;28;45530;-71
2023/01/30 01:01:39;;;;;;;;;41.33;34.67;;;;;7.28;65.19;102174.81;5042388;28;45614;-72
2023/01/30 01:04:06;;;;;;;;;39.00;33.00;;;;;7.30;65.18;102173.78;5060108;28;46125;-71
2023/01/30 01:06:31;;;;;;;;;39.00;30.67;;;;;7.30;65.31;102175.59;5059968;28;45487;-73
2023/01/30 01:08:56;;;;;;;;;32.67;29.67;;;;;6.93;65.43;102138.00;5060069;28;45596;-71
2023/01/30 01:11:25;;;;;;;;;34.33;29.00;;;;;6.37;65.37;102028.38;5060200;28;45251;-71
2023/01/30 01:13:55;;;;;;;;;33.00;30.67;;;;;7.22;65.76;102169.88;5059897;28;46401;-71
2023/01/30 01:16:20;;;;;;;;;28.00;26.33;;;;;7.11;65.11;102138.75;5059675;28;45506;-70
2023/01/30 01:18:46;;;;;;;;;36.33;31.33;;;;;7.14;65.36;102143.00;5042035;28;45441;-71
2023/01/30 01:21:12;;;;;;;;;38.33;31.00;;;;;7.19;65.21;102159.44;5060081;28;45535;-70
2023/01/30 01:23:38;;;;;;;;;33.33;29.00;;;;;7.25;65.23;102159.97;5059708;28;46015;-71
2023/01/30 01:26:04;;;;;;;;;33.67;30.33;;;;;5.96;65.62;101938.28;5060534;28;45419;-71
2023/01/30 01:28:29;;;;;;;;;39.00;31.00;;;;;6.69;64.96;102065.38;5060183;28;45475;-71
2023/01/30 01:30:54;;;;;;;;;36.67;31.67;;;;;7.09;65.39;102118.63;5059934;28;45269;-72
2023/01/30 01:33:19;;;;;;;;;36.00;32.67;;;;;7.21;65.21;102132.00;5059373;28;45395;-70
2023/01/30 01:35:46;;;;;;;;;30.33;28.00;;;;;6.29;65.05;101971.66;5059018;28;53428;-70
2023/01/30 01:38:12;;;;;;;;;31.33;28.67;;;;;7.33;64.83;102148.94;5059471;28;45328;-71
2023/01/30 01:43:24;;;;;;;;;28.33;24.00;;;;;7.40;64.49;102160.00;5059356;28;45280;-70
2023/01/30 01:45:57;;;;;;;;;35.67;30.00;;;;;7.31;65.12;102151.69;5059193;28;45466;-71
2023/01/30 01:48:30;;;;;;;;;29.33;26.00;;;;;7.11;65.08;102103.50;5060077;28;45234;-72
2023/01/30 01:51:04;;;;;;;;;32.00;28.33;;;;;7.35;65.15;102139.13;5060899;28;45519;-71
2023/01/30 01:53:35;;;;;;;;;31.00;28.00;;;;;7.38;64.97;102146.03;5059661;28;45674;-70
2023/01/30 01:56:03;;;;;;;;;35.67;30.33;;;;;6.94;64.83;102064.81;5059267;28;45509;-71
2023/01/30 01:58:39;;;;;;;;;32.67;29.00;;;;;6.95;64.51;102077.94;5059301;28;45630;-72
2023/01/30 02:01:05;;;;;;;;;30.00;27.00;;;;;7.37;64.52;102139.03;5059290;28;45281;-70
2023/01/30 02:03:36;;;;;;;;;30.67;28.67;;;;;7.39;64.45;102156.50;5058971;28;45753;-71
2023/01/30 02:06:03;;;;;;;;;29.67;28.33;;;;;7.44;64.45;102143.03;5040784;28;46225;-69
2023/01/30 02:08:42;;;;;;;;;34.00;30.33;;;;;7.46;64.15;102147.31;5040905;28;45586;-70
2023/01/30 02:11:20;;;;;;;;;29.33;28.00;;;;;7.42;64.51;102129.06;5059196;28;45269;-71
2023/01/30 02:13:47;;;;;;;;;30.00;27.67;;;;;7.30;64.78;102139.41;5058726;28;46449;-71
2023/01/30 02:16:12;;;;;;;;;39.00;33.00;;;;;6.86;64.51;102078.50;5040702;28;46120;-71
2023/01/30 02:18:40;;;;;;;;;32.00;30.67;;;;;7.24;64.56;102152.13;5040789;28;45508;-70
2023/01/30 02:21:05;;;;;;;;;28.67;26.67;;;;;7.26;64.27;102135.22;5059119;28;45357;-70
2023/01/30 02:23:52;;;;;;;;;32.33;28.67;;;;;7.30;64.51;102141.19;5058565;28;45764;-71
2023/01/30 02:26:46;;;;;;;;;31.00;26.67;;;;;7.29;64.35;102128.91;5058605;28;45431;-72
2023/01/30 02:29:48;;;;;;;;;37.67;32.67;;;;;7.31;64.29;102122.56;5058689;28;45320;-71
2023/01/30 02:32:28;;;;;;;;;34.00;27.67;;;;;7.24;64.11;102125.69;5040784;28;45557;-71
2023/01/30 02:35:06;;;;;;;;;30.67;28.67;;;;;7.29;64.63;102123.63;5058239;28;46601;-71
2023/01/30 02:37:47;;;;;;;;;31.00;28.33;;;;;7.29;64.33;102124.47;5058523;28;45452;-72
2023/01/30 02:40:24;;;;;;;;;39.67;28.33;;;;;7.32;64.02;102121.63;5040321;28;45281;-71
2023/01/30 02:43:14;;;;;;;;;38.67;30.00;;;;;7.39;63.71;102116.81;5058664;28;45593;-71
2023/01/30 02:45:52;;;;;;;;;33.67;29.33;;;;;7.37;64.18;102110.78;5058102;28;45329;-71
2023/01/30 02:48:33;;;;;;;;;36.33;31.67;;;;;7.32;64.35;102113.69;5058293;28;45313;-71
2023/01/30 02:51:06;;;;;;;;;30.67;29.33;;;;;7.35;63.46;102119.75;5057731;28;45480;-71
2023/01/30 02:53:32;;;;;;;;;31.33;28.67;;;;;7.25;63.84;102108.88;5058529;28;45469;-70
2023/01/30 02:55:58;;;;;;;;;38.67;28.00;;;;;7.34;63.91;102140.06;5057898;28;45657;-70
2023/01/30 02:58:28;;;;;;;;;33.33;28.33;;;;;7.30;63.85;102141.19;5039827;28;45525;-70
2023/01/30 03:01:14;;;;;;;;;35.00;32.67;;;;;7.27;63.88;102138.72;5040460;28;45189;-69
2023/01/30 03:03:50;;;;;;;;;37.00;31.33;;;;;6.64;64.05;102038.34;5058896;28;45205;-69
2023/01/30 03:06:32;;;;;;;;;33.67;33.67;;;;;7.23;64.00;102129.28;5057960;28;47156;-71
2023/01/30 03:09:09;;;;;;;;;32.67;27.67;;;;;7.27;63.98;102136.94;5057864;28;45522;-70
2023/01/30 03:11:40;;;;;;;;;36.33;31.33;;;;;7.08;64.04;102093.13;5039889;28;45506;-71
2023/01/30 03:14:05;;;;;;;;;35.00;31.00;;;;;7.37;63.67;102129.28;5039976;28;45497;-69
2023/01/30 03:16:38;;;;;;;;;32.67;29.33;;;;;7.38;63.66;102128.34;5057824;28;47170;-70
2023/01/30 03:19:08;;;;;;;;;38.67;30.33;;;;;7.40;63.46;102137.06;5039849;28;45474;-69
2023/01/30 03:21:33;;;;;;;;;33.33;27.67;;;;;6.51;64.20;101988.00;5057977;28;45240;-69
2023/01/30 03:23:59;;;;;;;;;35.00;30.67;;;;;7.40;64.08;102142.34;5057898;28;45263;-71
2023/01/30 03:26:29;;;;;;;;;36.33;34.00;;;;;7.31;63.71;102124.38;5057788;28;51616;-71
2023/01/30 03:28:55;;;;;;;;;37.33;31.00;;;;;7.05;64.16;102073.00;5058117;28;45474;-71
2023/01/30 03:31:20;;;;;;;;;31.00;27.00;;;;;6.42;64.64;101971.81;5039735;28;45368;-70
2023/01/30 03:33:46;;;;;;;;;33.67;28.67;;;;;7.31;65.34;102111.16;5058054;28;45498;-70
2023/01/30 03:36:11;;;;;;;;;35.33;27.33;;;;;7.36;64.91;102124.94;5057732;28;45330;-71
2023/01/30 03:38:37;;;;;;;;;30.67;30.00;;;;;7.50;65.21;102140.03;5057574;28;45549;-71
2023/01/30 03:41:04;;;;;;;;;34.67;29.00;;;;;7.44;65.42;102127.16;5057880;28;45288;-71
2023/01/30 03:43:29;;;;;;;;;21.33;19.33;;;;;7.30;65.73;102123.53;5057994;28;45472;-71
2023/01/30 03:45:55;;;;;;;;;36.33;29.67;;;;;7.23;66.30;102119.53;5057221;28;46645;-70
2023/01/30 03:48:20;;;;;;;;;34.67;31.00;;;;;6.34;65.94;101970.44;5057461;28;45262;-71
2023/01/30 03:50:45;;;;;;;;;31.00;30.00;;;;;7.08;66.62;102116.91;5057576;28;45443;-71
2023/01/30 03:53:10;;;;;;;;;30.33;26.67;;;;;7.20;66.89;102118.84;5057618;28;45444;-71
2023/01/30 03:55:36;;;;;;;;;31.33;28.00;;;;;6.87;67.01;102053.75;5057022;28;46425;-70
2023/01/30 03:58:01;;;;;;;;;30.00;26.00;;;;;6.56;66.67;102003.56;5057371;28;45435;-70
2023/01/30 04:00:27;;;;;;;;;31.00;29.33;;;;;7.12;67.37;102107.88;5039275;28;45683;-71
2023/01/30 04:02:53;;;;;;;;;32.33;29.00;;;;;6.91;67.70;102071.13;5038214;28;45258;-72
2023/01/30 04:05:19;;;;;;;;;31.00;24.67;;;;;6.83;67.70;102062.81;5057366;28;45765;-72
2023/01/30 04:07:45;;;;;;;;;29.67;25.33;;;;;6.19;67.95;101952.81;5057285;28;45544;-70
2023/01/30 04:10:14;;;;;;;;;36.33;33.00;;;;;6.98;67.94;102083.06;5038985;28;45254;-70
2023/01/30 04:12:39;;;;;;;;;30.33;28.00;;;;;6.87;67.25;102044.97;5057598;28;45463;-69
2023/01/30 04:15:05;;;;;;;;;28.00;27.33;;;;;7.01;67.53;102074.97;5056811;28;46543;-69
2023/01/30 04:17:30;;;;;;;;;36.67;29.33;;;;;7.07;67.76;102081.69;5057135;28;45860;-70
2023/01/30 04:19:56;;;;;;;;;29.67;26.67;;;;;6.00;67.35;101909.91;5057287;28;45502;-71
2023/01/30 04:22:21;;;;;;;;;31.33;29.00;;;;;7.09;67.17;102097.47;5057460;28;45183;-70
2023/01/30 04:24:46;;;;;;;;;30.00;26.67;;;;;7.04;67.03;102076.59;5038862;28;53336;-71
2023/01/30 04:27:12;;;;;;;;;33.33;29.33;;;;;6.28;67.32;101939.13;5057804;28;45468;-71
2023/01/30 04:29:37;;;;;;;;;30.67;27.33;;;;;7.25;66.67;102100.94;5073311;28;62731;-70
2023/01/30 04:32:02;;;;;;;;;35.00;30.00;;;;;7.17;66.63;102069.63;5077046;28;49415;-70
2023/01/30 04:34:28;;;;;;;;;36.33;30.33;;;;;6.89;66.91;102019.28;5076955;27;45415;-70
2023/01/30 04:36:53;;;;;;;;;31.33;29.00;;;;;7.24;66.73;102078.06;5075703;28;45507;-72
2023/01/30 04:39:18;;;;;;;;;37.00;28.67;;;;;7.22;67.16;102079.97;5077354;27;45299;-70
2023/01/30 04:41:43;;;;;;;;;35.33;33.33;;;;;7.18;67.68;102068.69;5076704;28;45236;-71
2023/01/30 04:44:09;;;;;;;;;30.33;28.33;;;;;7.17;67.51;102068.78;5076795;28;56498;-70
2023/01/30 04:46:34;;;;;;;;;33.33;29.00;;;;;7.20;67.75;102068.59;5076526;28;58834;-70
2023/01/30 04:48:59;;;;;;;;;31.00;29.67;;;;;6.14;67.28;101893.31;5077349;28;45572;-70
2023/01/30 04:51:25;;;;;;;;;34.67;26.33;;;;;6.68;67.03;101981.75;5077200;27;45298;-69
2023/01/30 04:53:50;;;;;;;;;31.00;29.00;;;;;7.24;67.55;102086.00;5076671;28;46035;-70
2023/01/30 04:56:15;;;;;;;;;33.00;31.33;;;;;6.22;66.93;101907.78;5076622;27;45304;-71
2023/01/30 04:58:41;;;;;;;;;35.67;29.00;;;;;5.75;67.07;101850.56;5075561;28;45269;-70
2023/01/30 05:01:15;;;;;;;;;27.00;25.00;;;;;6.67;67.33;101977.41;5076912;28;45529;-70
2023/01/30 05:03:41;;;;;;;;;29.67;26.33;;;;;6.65;67.47;101961.63;5076675;28;46026;-71
2023/01/30 05:06:06;;;;;;;;;29.00;24.67;;;;;6.96;67.41;102000.34;5076480;28;45308;-69
2023/01/30 05:08:32;;;;;;;;;31.33;27.00;;;;;6.74;67.03;101962.03;5076697;27;45476;-70
2023/01/30 05:10:57;;;;;;;;;35.67;25.33;;;;;7.41;67.51;102083.22;5076863;27;46376;-70
2023/01/30 05:13:22;;;;;;;;;28.00;24.67;;;;;7.28;67.41;102063.72;5076025;28;64666;-69
2023/01/30 05:15:47;;;;;;;;;28.00;27.33;;;;;7.39;67.73;102086.88;5080110;28;45474;-71
2023/01/30 05:18:13;;;;;;;;;34.33;27.00;;;;;6.94;67.44;102002.22;5079538;28;53239;-71
2023/01/30 05:20:38;;;;;;;;;30.67;28.33;;;;;7.40;67.33;102084.13;5080228;27;45530;-71
2023/01/30 05:23:03;;;;;;;;;33.67;31.67;;;;;7.13;67.56;102035.50;5079987;28;45746;-71
2023/01/30 05:25:29;;;;;;;;;33.33;31.33;;;;;7.45;67.00;102082.09;5079038;28;45230;-71
2023/01/30 05:27:55;;;;;;;;;33.00;31.33;;;;;6.87;67.74;101985.03;5075119;27;45544;-72
2023/01/30 05:30:21;;;;;;;;;27.00;26.67;;;;;7.39;67.20;102057.78;5059838;28;45291;-71
2023/01/30 05:32:46;;;;;;;;;28.00;24.33;;;;;7.49;67.47;102078.31;5059283;28;46549;-70
2023/01/30 05:35:12;;;;;;;;;28.00;27.67;;;;;7.49;67.76;102067.72;5041435;28;45576;-69
2023/01/30 05:37:37;;;;;;;;;28.00;26.67;;;;;7.03;67.98;101989.41;5041290;28;45555;-70
2023/01/30 05:40:02;;;;;;;;;41.33;33.67;;;;;6.86;68.34;101970.09;5041593;28;45594;-71
2023/01/30 05:42:28;;;;;;;;;37.00;30.33;;;;;7.15;68.22;102015.97;5059274;28;46394;-71
2023/01/30 05:44:53;;;;;;;;;36.00;31.33;;;;;7.42;68.55;102062.91;5059215;28;45428;-71
2023/01/30 05:47:18;;;;;;;;;24.33;22.67;;;;;7.48;68.17;102075.75;5059353;28;45265;-71
2023/01/30 05:49:44;;;;;;;;;32.00;29.00;;;;;7.45;67.90;102050.34;5059338;28;45305;-71
2023/01/30 05:52:09;;;;;;;;;32.67;27.33;;;;;7.40;67.93;102052.38;5058904;28;46026;-69
2023/01/30 05:54:34;;;;;;;;;29.33;26.67;;;;;6.85;68.04;101947.25;5059059;28;45412;-71
2023/01/30 05:57:00;;;;;;;;;31.33;29.67;;;;;6.96;67.62;101967.75;5059015;28;45468;-71
2023/01/30 05:59:25;;;;;;;;;34.00;28.33;;;;;7.53;68.27;102081.63;5059588;28;45361;-71
2023/01/30 06:01:50;;;;;;;;;31.33;29.33;;;;;6.36;68.24;101873.50;5058897;28;46239;-72
2023/01/30 06:04:16;;;;;;;;;31.00;26.67;;;;;6.97;68.67;101975.59;5059019;28;45441;-72
2023/01/30 06:06:41;;;;;;;;;29.67;26.00;;;;;7.44;69.14;102066.31;5058349;28;56263;-70
2023/01/30 06:09:09;;;;;;;;;28.00;22.33;;;;;7.39;70.57;102073.66;5059168;28;45215;-71
2023/01/30 06:11:34;;;;;;;;;32.00;29.33;;;;;7.36;69.83;102056.16;5058620;28;45582;-72
2023/01/30 06:14:00;;;;;;;;;32.00;29.67;;;;;7.35;70.64;102043.88;5058221;28;45328;-72
2023/01/30 06:16:25;;;;;;;;;28.33;25.67;;;;;7.38;69.82;102050.78;5040643;28;45337;-70
2023/01/30 06:18:50;;;;;;;;;31.00;29.00;;;;;7.23;70.55;102031.41;5059117;28;45460;-70
2023/01/30 06:21:16;;;;;;;;;30.00;24.00;;;;;7.31;70.83;102043.22;5059159;28;45284;-70
2023/01/30 06:23:42;;;;;;;;;26.00;24.67;;;;;7.27;71.04;102027.63;5056909;28;45250;-70
2023/01/30 06:26:08;;;;;;;;;31.67;30.33;;;;;7.32;70.84;102038.78;5047870;28;45392;-71
2023/01/30 06:28:33;;;;;;;;;28.67;26.67;;;;;7.31;71.10;102040.56;5038261;28;45472;-71
2023/01/30 06:30:59;;;;;;;;;26.33;21.33;;;;;7.06;71.20;101999.81;5038536;28;46577;-72
2023/01/30 06:33:24;;;;;;;;;34.33;27.00;;;;;7.35;70.40;102020.06;5038316;28;45404;-70
2023/01/30 06:35:51;;;;;;;;;30.67;27.00;;;;;7.42;70.21;102050.53;5038616;28;45502;-71
2023/01/30 06:38:17;;;;;;;;;27.33;25.33;;;;;7.35;70.51;102054.47;5039306;28;45492;-72
2023/01/30 06:40:47;;;;;;;;;24.67;18.33;;;;;6.78;70.08;101972.31;5045858;28;46041;-69
2023/01/30 06:43:13;;;;;;;;;24.67;24.00;;;;;7.40;70.49;102062.13;5058139;28;45500;-70
2023/01/30 06:45:39;;;;;;;;;31.00;26.67;;;;;7.12;70.14;102010.00;5040025;28;45444;-71
2023/01/30 06:48:04;;;;;;;;;36.33;31.33;;;;;6.90;69.85;101968.97;5058381;28;45369;-72
2023/01/30 06:50:30;;;;;;;;;26.67;22.00;;;;;7.52;69.93;102080.78;5039710;28;46102;-70
2023/01/30 06:52:58;;;;;;;;;26.00;25.67;;;;;7.62;69.98;102081.94;5047012;28;46941;-74
2023/01/30 06:55:25;;;;;;;;;29.00;25.00;;;;;7.69;69.47;102094.78;5043522;28;45527;-72
2023/01/30 06:58:02;;;;;;;;;26.33;24.00;;;;;6.84;69.95;101950.84;5030972;28;45595;-70
2023/01/30 07:00:27;;;;;;;;;24.67;23.33;;;;;6.72;69.58;101933.06;5048702;28;46739;-70
2023/01/30 07:02:52;;;;;;;;;24.00;21.67;;;;;7.73;69.96;102101.59;5019912;28;45738;-70
2023/01/30 07:05:17;;;;;;;;;28.33;23.33;;;;;6.84;70.11;101964.06;5052245;28;48330;-71
2023/01/30 07:07:43;;;;;;;;;30.67;26.33;;;;;7.42;69.94;102098.16;5058007;28;55543;-70
2023/01/30 07:10:11;;;;;;;;;23.00;22.00;;;;;7.75;69.75;102103.22;5057819;28;46891;-71
2023/01/30 07:12:37;;;;;;;;;28.00;27.67;;;;;7.77;69.75;102109.25;5050547;28;45418;-70
2023/01/30 07:15:05;;;;;;;;;26.00;23.00;;;;;6.64;70.24;101930.03;5026919;28;45274;-71
2023/01/30 07:17:32;;;;;;;;;33.67;28.33;;;;;5.05;69.79;101659.38;5054067;28;45404;-70
2023/01/30 07:19:57;;;;;;;;;27.33;25.67;;;;;7.81;70.46;102115.25;5040217;28;45707;-73
2023/01/30 07:22:23;;;;;;;;;23.00;17.67;;;;;7.33;70.45;102059.00;5048258;28;45695;-72
2023/01/30 07:24:48;;;;;;;;;36.67;31.00;;;;;7.75;70.35;102126.19;5039457;28;45402;-69
2023/01/30 07:27:13;;;;;;;;;29.00;26.67;;;;;7.62;70.71;102111.06;5057894;28;45377;-70
2023/01/30 07:29:39;;;;;;;;;33.67;27.67;;;;;7.71;70.62;102106.13;5057297;28;45645;-69
2023/01/30 07:32:06;;;;;;;;;72.00;51.25;;;;;7.62;71.24;102105.75;5057405;28;45345;-71
2023/01/30 07:34:32;;;;;;;;;79.75;52.50;;;;;7.75;71.08;102145.56;5039421;28;45428;-72
2023/01/30 07:36:58;;;;;;;;;79.75;52.25;;;;;6.90;70.95;101998.06;5057428;28;45284;-70
2023/01/30 07:39:23;;;;;;;;;137.00;92.50;;;;;6.94;71.09;101986.34;5057152;28;45571;-71
2023/01/30 07:41:48;;;;;;;;;44.67;31.67;;;;;7.88;71.35;102133.31;5039361;28;45711;-71
2023/01/30 07:44:14;;;;;;;;;28.67;24.00;;;;;7.88;70.97;102132.47;5058323;28;45210;-72
2023/01/30 07:46:39;;;;;;;;;20.00;17.33;;;;;7.89;70.98;102139.44;5058347;28;45499;-72
2023/01/30 07:49:09;;;;;;;;;32.00;29.67;;;;;7.80;71.30;102124.97;5057550;28;45555;-71
2023/01/30 07:51:34;;;;;;;;;32.33;31.33;;;;;6.82;71.80;101958.00;5058476;28;45279;-72
2023/01/30 07:54:00;;;;;;;;;31.33;27.67;;;;;7.38;71.77;102054.28;5040655;28;46393;-72
2023/01/30 07:56:26;;;;;;;;;93.50;63.25;;;;;7.76;71.92;102101.41;5048077;28;45826;-71
2023/01/30 07:58:54;;;;;;;;;91.50;61.00;;;;;7.87;72.05;102115.72;5044539;28;45557;-73
2023/01/30 08:01:20;;;;;;;;;57.67;41.33;;;;;6.31;71.35;101848.28;5051110;28;45460;-72
2023/01/30 08:03:47;;;;;;;;;56.67;42.00;;;;;6.55;72.24;101888.25;5041080;28;45528;-71
2023/01/30 08:06:13;;;;;;;;;40.33;29.67;;;;;7.37;72.22;102042.00;5020218;28;45463;-73
2023/01/30 08:08:39;;;;;;;;;30.00;23.67;;;;;7.94;72.57;102130.28;5056146;28;45378;-71
2023/01/30 08:11:05;;;;;;;;;39.67;31.00;;;;;7.92;72.41;102124.22;5038644;28;45531;-74
2023/01/30 08:13:30;;;;;;;;;26.33;24.00;;;;;7.88;72.64;102116.56;5021390;28;45390;-72
2023/01/30 08:16:01;;;;;;;;;27.00;25.00;;;;;7.95;72.69;102136.44;5042906;28;45549;-73
2023/01/30 08:18:30;;;;;;;;;45.00;33.33;;;;;7.96;72.73;102138.13;5056715;28;46039;-74
2023/01/30 08:20:57;;;;;;;;;36.33;28.33;;;;;7.63;72.64;102075.69;5050729;28;45455;-72
2023/01/30 08:23:22;;;;;;;;;25.00;25.00;;;;;7.92;72.11;102104.84;5035101;28;45520;-74
2023/01/30 08:25:48;;;;;;;;;32.33;28.33;;;;;8.00;72.64;102134.34;5022402;28;45574;-72
2023/01/30 08:28:13;;;;;;;;;32.67;26.67;;;;;6.76;72.60;101947.78;5056403;28;46670;-74
2023/01/30 08:30:40;;;;;;;;;27.67;25.00;;;;;7.30;72.30;102009.78;5038289;28;45366;-73
2023/01/30 08:33:06;;;;;;;;;32.33;23.67;;;;;7.39;72.38;102034.81;5056890;28;45293;-72
2023/01/30 08:35:31;;;;;;;;;23.00;22.00;;;;;8.13;72.01;102142.41;5056784;28;45231;-73
2023/01/30 08:37:57;;;;;;;;;27.67;23.00;;;;;8.15;71.70;102140.50;5056054;28;67906;-74
2023/01/30 08:40:22;;;;;;;;;32.00;28.33;;;;;8.14;72.01;102147.59;5056731;28;45242;-74
2023/01/30 08:42:47;;;;;;;;;29.67;24.67;;;;;7.96;71.47;102101.06;5057093;28;45831;-72
2023/01/30 08:45:13;;;;;;;;;35.33;27.67;;;;;8.12;71.91;102135.41;5057555;28;45371;-73
2023/01/30 08:47:38;;;;;;;;;26.00;25.00;;;;;8.26;71.92;102137.22;5056271;28;46690;-73
2023/01/30 08:50:04;;;;;;;;;33.33;25.67;;;;;7.18;71.71;101962.03;5059083;28;45310;-74
2023/01/30 08:52:32;;;;;;;;;24.67;23.33;;;;;4.97;71.42;101586.94;5059631;28;45410;-72
2023/01/30 08:54:57;;;;;;;;;25.00;20.67;;;;;7.06;71.61;101947.78;5042418;28;45289;-75
2023/01/30 08:57:22;;;;;;;;;40.67;31.67;;;;;7.63;71.54;102028.06;5059973;28;45508;-73
2023/01/30 08:59:50;;;;;;;;;80.50;52.00;;;;;8.36;71.35;102146.31;5059949;28;45500;-73
2023/01/30 09:02:16;;;;;;;;;55.67;42.00;;;;;8.46;71.21;102172.16;5028444;28;45269;-74
2023/01/30 09:04:41;;;;;;;;;33.67;26.00;;;;;7.82;70.76;102056.91;5022726;28;45245;-73
2023/01/30 09:07:07;;;;;;;;;30.33;26.00;;;;;8.56;70.88;102166.25;5052122;28;46245;-71
2023/01/30 09:09:32;;;;;;;;;36.33;28.00;;;;;8.03;70.30;102078.56;5041383;28;45563;-73
2023/01/30 09:11:57;;;;;;;;;30.00;25.33;;;;;8.13;70.16;102087.63;5041667;28;45451;-73
2023/01/30 09:14:23;;;;;;;;;44.33;35.00;;;;;7.80;69.95;102018.19;5059673;28;45549;-72
2023/01/30 09:16:55;;;;;;;;;45.33;36.67;;;;;8.60;70.63;102165.97;5049633;28;45950;-72
2023/01/30 09:19:27;;;;;;;;;49.67;37.00;;;;;8.58;70.17;102138.72;5039391;28;45438;-72
2023/01/30 09:21:54;;;;;;;;;59.00;35.33;;;;;8.69;70.27;102157.44;5050543;28;45543;-73
2023/01/30 09:24:25;;;;;;;;;24.00;20.00;;;;;8.73;70.37;102164.25;5059868;28;45246;-73
2023/01/30 09:26:50;;;;;;;;;22.00;20.00;;;;;8.24;70.24;102092.28;5058617;28;46459;-72
2023/01/30 09:29:16;;;;;;;;;26.00;24.67;;;;;8.19;70.60;102081.94;5059509;28;45362;-73
2023/01/30 09:31:41;;;;;;;;;32.33;27.67;;;;;8.28;70.67;102082.31;5033108;28;45301;-73
2023/01/30 09:34:06;;;;;;;;;45.67;32.67;;;;;8.42;70.57;102115.00;5039273;28;45436;-73
2023/01/30 09:36:32;;;;;;;;;21.67;19.00;;;;;8.79;70.31;102195.69;5045453;28;46437;-73
2023/01/30 09:38:57;;;;;;;;;45.33;35.33;;;;;8.57;70.52;102147.63;5059740;28;45414;-73
2023/01/30 09:41:41;;;;;;;;;21.00;20.00;;;;;8.74;70.37;102157.16;5059582;28;45262;-72
2023/01/30 09:44:29;;;;;;;;;15.67;15.00;;;;;8.86;70.28;102168.78;5059360;28;45769;-73
2023/01/30 09:47:13;;;;;;;;;17.00;17.00;;;;;7.97;69.77;102004.78;5058868;28;46465;-73
2023/01/30 09:49:41;;;;;;;;;24.33;21.33;;;;;8.92;70.42;102158.63;5059159;28;45352;-72
2023/01/30 09:52:19;;;;;;;;;116.75;71.00;;;;;8.93;70.94;102159.47;5058834;28;45293;-71
2023/01/30 09:54:45;;;;;;;;;61.33;45.67;;;;;8.80;70.46;102116.97;5059248;28;45391;-71
2023/01/30 09:57:17;;;;;;;;;54.67;36.33;;;;;8.90;70.95;102141.13;5058145;28;46348;-73
2023/01/30 10:00:04;;;;;;;;;33.67;24.67;;;;;9.09;70.86;102168.16;5040782;28;45570;-73
2023/01/30 10:02:39;;;;;;;;;50.67;40.67;;;;;9.14;71.35;102171.34;5058802;28;45475;-73
2023/01/30 10:05:05;;;;;;;;;61.00;42.67;;;;;9.08;71.27;102158.50;5041131;28;45362;-73
2023/01/30 10:07:56;;;;;;;;;83.00;54.67;;;;;9.20;70.85;102172.75;5058604;28;46288;-73
2023/01/30 10:10:49;;;;;;;;;54.00;40.33;;;;;9.22;71.15;102177.03;5060589;28;45505;-73
2023/01/30 10:13:40;;;;;;;;;284.00;167.25;;;;;9.02;70.88;102133.22;5040698;28;45480;-74
2023/01/30 10:16:35;;;;;;;;;33.33;27.00;;;;;9.26;71.07;102178.53;5021521;28;45575;-73
2023/01/30 10:19:26;;;;;;;;;22.00;19.00;;;;;9.26;71.22;102181.19;4950645;28;45988;-73
2023/01/30 10:22:17;;;;;;;;;45.33;35.33;;;;;9.25;71.82;102181.28;5038920;28;45337;-73
2023/01/30 10:24:49;;;;;;;;;30.33;23.67;;;;;9.39;71.43;102190.03;5038608;28;45258;-74
2023/01/30 10:27:16;;;;;;;;;51.00;38.33;;;;;9.28;71.29;102179.28;5038868;28;45673;-76
2023/01/30 10:29:55;;;;;;;;;42.33;33.33;;;;;8.74;70.98;102083.75;5038469;28;45937;-72
2023/01/30 10:32:31;;;;;;;;;32.67;26.67;;;;;9.53;70.96;102193.59;5028632;28;45451;-76
2023/01/30 10:35:02;;;;;;;;;37.67;25.33;;;;;8.07;70.53;101952.94;5039232;28;45504;-73
2023/01/30 10:37:51;;;;;;;;;21.00;21.00;;;;;9.59;70.59;102190.50;5050404;28;45486;-74
2023/01/30 10:40:25;;;;;;;;;28.00;22.00;;;;;9.18;70.71;102117.13;5058165;28;46520;-71
2023/01/30 10:43:04;;;;;;;;;17.00;17.00;;;;;9.67;70.62;102194.38;5057495;28;45344;-73
2023/01/30 10:45:48;;;;;;;;;25.33;19.67;;;;;9.73;70.76;102177.16;5058344;28;45505;-72
2023/01/30 10:48:40;;;;;;;;;18.00;16.00;;;;;8.78;70.43;102003.06;5058440;28;45281;-72
2023/01/30 10:51:32;;;;;;;;;18.33;16.67;;;;;9.47;70.62;102127.63;5058282;28;46452;-72
2023/01/30 10:54:12;;;;;;;;;19.00;17.00;;;;;9.03;70.62;102038.59;5040183;28;45450;-73
2023/01/30 10:56:56;;;;;;;;;18.00;17.00;;;;;9.84;70.61;102158.72;5058115;28;45274;-72
2023/01/30 10:59:23;;;;;;;;;25.67;16.67;;;;;9.71;70.45;102121.50;5058504;28;45135;-72
2023/01/30 11:02:17;;;;;;;;;17.33;15.67;;;;;9.57;70.02;102080.91;5057248;28;45749;-76
2023/01/30 11:04:49;;;;;;;;;25.67;22.00;;;;;9.13;69.63;101995.41;5046389;28;45341;-72
2023/01/30 11:07:15;;;;;;;;;15.67;14.33;;;;;9.04;69.31;101972.16;5052362;28;45551;-73
2023/01/30 11:09:43;;;;;;;;;13.67;13.00;;;;;10.13;69.10;102147.88;5050921;28;45555;-72
2023/01/30 11:12:09;;;;;;;;;12.33;12.33;;;;;10.33;69.09;102158.00;5041467;28;46544;-73
2023/01/30 11:14:55;;;;;;;;;32.67;27.33;;;;;10.39;69.10;102162.88;5048452;28;45430;-74
2023/01/30 11:17:37;;;;;;;;;17.67;6.00;;;;;10.45;68.62;102162.44;5033737;28;45542;-72
2023/01/30 11:20:17;;;;;;;;;12.33;10.00;;;;;10.30;68.59;102147.56;5055859;28;45412;-72
2023/01/30 11:22:49;;;;;;;;;10.00;10.00;;;;;10.40;67.83;102139.78;5031193;28;47925;-72
2023/01/30 11:25:20;;;;;;;;;12.00;10.00;;;;;9.62;68.28;102015.09;5027366;28;45452;-73
2023/01/30 11:28:05;;;;;;;;;11.67;11.67;;;;;10.58;68.14;102157.94;5039010;28;45300;-73
2023/01/30 11:30:34;;;;;;;;;11.00;11.00;;;;;10.68;68.43;102155.50;5042003;28;45239;-72